Blakely, Arkansas
Current Conditions -  °F | °C
As of 8:53 PM on Monday 22 Dec 2014 (Local Time) from KHOT Reporting Station
Haze Haze  
Wind Chill: 53°   Ceiling: 2300
Heat Index: 53°   Visibility: 4mi
Dew Point: 52°   Wind: 0mph
Humidity: 96%   Direction: NA
Pressure: 29.65"   Gusts: NA
Location:  34.7078°N, 93.0493°W
Report Text: KHOT 230253Z AUTO 00000KT 4SM BR FEW009 OVC023 12/11 A2965 RMK AO2 SLP039 T01170111 51024
Loading
Personal Weather Stations






























Interactive Weather Map New forecast layout! Learn more

10-Day Weather Forecast

Advertisements
Track Severe Weather on mobile